KELP

El Paso International Airport

El Paso, Texas, USA
METAR KELP 121751Z 20005KT 10SM FEW070 BKN100 BKN150 11/02 A3004 RMK AO2 SLP142 VIRGA NW-N-NE SHRA DSNT N AND SW 60000 T01060022 10111 20050 58001
Observed Flight Rules
Dec-12 @ 17:51 UTC (an hour ago) Visual Flight Rules
Wind Visibility Clouds
200° at 5 knots 10 miles
  • Few at 7,000' AGL
  • Broken at 10,000' AGL
  • Broken at 15,000' AGL
Temperatures Readings
Current 11°C / 52°F
Dewpoint 2°C / 36°F
Humidity 54%
Altimeter 30.04" Hg
Pressure 1014.2 hPa
Elevation 1197
METAR KELP 121751Z 20005KT 10SM FEW070 BKN100 BKN150 11/02 A3004 RMK AO2 SLP142 VIRGA NW-N-NE SHRA DSNT N AND SW 60000 T01060022 10111 20050 58001
Observed Flight Rules
Dec-12 @ 17:51 UTC
(an hour ago)
VFR
Wind Visibility
200° at 5 knots 10 miles
Clouds
  • Few at 7,000' AGL
  • Broken at 10,000' AGL
  • Broken at 15,000' AGL
Temperature Dewpoint
11°C / 52°F 2°C / 36°F
Humidity Altimeter Pressure
54% 30.04" Hg 1014.2 hPa